Time;durP1;ratioP1;P1;durP2;ratioP2;P2;SDS_P1;SDS_P2;PMS_P1;PMS_P2;Temp;Humidity;BMP_temperature;BMP_pressure;BME280_temperature;BME280_humidity;BME280_pressure;Samples;Min_cycle;Max_cycle;Signal;HPM_P1;HPM_P2
2021/07/12 00:00:25;;;;;;;73.05;37.83;;;;;;;14.83;84.98;101575.00;5025590;28;20041;-49
2021/07/12 00:02:52;;;;;;;71.78;35.28;;;;;;;14.82;84.76;101574.13;5026667;28;20033;-49
2021/07/12 00:05:18;;;;;;;66.30;34.55;;;;;;;14.82;84.65;101573.28;5020913;28;20097;-47
2021/07/12 00:07:44;;;;;;;72.78;36.33;;;;;;;14.80;84.86;101567.13;5024055;28;20027;-48
2021/07/12 00:10:11;;;;;;;69.25;36.15;;;;;;;14.79;85.00;101570.63;5024475;28;21040;-50
2021/07/12 00:12:37;;;;;;;68.40;36.13;;;;;;;14.78;84.70;101571.47;5022071;28;20475;-50
2021/07/12 00:15:07;;;;;;;75.50;38.85;;;;;;;14.78;85.09;101563.59;5026320;28;20887;-47
2021/07/12 00:17:33;;;;;;;71.57;37.25;;;;;;;14.77;85.16;101564.47;5026528;28;20456;-49
2021/07/12 00:19:58;;;;;;;80.07;41.15;;;;;;;14.78;85.13;101556.63;5027704;28;20320;-47
2021/07/12 00:22:25;;;;;;;80.22;39.70;;;;;;;14.78;85.21;101555.72;5019197;28;20456;-50
2021/07/12 00:24:50;;;;;;;80.28;40.40;;;;;;;14.78;85.01;101547.84;5009151;28;20039;-48
2021/07/12 00:27:15;;;;;;;76.53;38.67;;;;;;;14.78;85.10;101558.34;5025316;28;20041;-50
2021/07/12 00:29:41;;;;;;;73.45;37.42;;;;;;;14.78;85.22;101559.25;5025697;28;20026;-49
2021/07/12 00:32:06;;;;;;;69.05;35.28;;;;;;;14.81;84.62;101545.28;5017542;28;20075;-48
2021/07/12 00:34:32;;;;;;;77.45;40.47;;;;;;;14.81;84.59;101543.53;5024860;28;20178;-48
2021/07/12 00:36:57;;;;;;;77.57;39.70;;;;;;;14.79;85.06;101542.63;5024334;28;20026;-49
2021/07/12 00:39:22;;;;;;;87.88;41.97;;;;;;;14.84;84.88;101540.91;5022188;28;20119;-47
2021/07/12 00:41:48;;;;;;;84.03;41.95;;;;;;;14.87;85.01;101538.31;5027392;28;20021;-49
2021/07/12 00:44:14;;;;;;;79.10;38.55;;;;;;;14.90;84.87;101537.44;5021614;28;20029;-50
2021/07/12 00:46:39;;;;;;;83.60;40.75;;;;;;;14.95;84.98;101535.72;5027632;28;20043;-46
2021/07/12 00:49:05;;;;;;;87.82;42.67;;;;;;;14.99;85.00;101525.25;5020949;28;20043;-49
2021/07/12 00:51:30;;;;;;;84.15;41.78;;;;;;;15.05;84.86;101523.53;5021115;28;20033;-47
2021/07/12 00:53:56;;;;;;;83.63;42.28;;;;;;;15.11;84.76;101528.81;5026110;28;20033;-50
2021/07/12 00:56:21;;;;;;;89.15;42.97;;;;;;;15.18;84.75;101533.25;5008150;28;20025;-50
2021/07/12 00:58:47;;;;;;;91.25;44.72;;;;;;;15.26;84.57;101528.88;5025363;28;20091;-46
2021/07/12 01:01:12;;;;;;;87.57;43.20;;;;;;;15.33;84.40;101520.16;5020401;28;20025;-50
2021/07/12 01:03:38;;;;;;;91.72;45.67;;;;;;;15.49;83.58;101515.84;5023899;28;20120;-49
2021/07/12 01:06:05;;;;;;;98.38;46.83;;;;;;;15.53;83.42;101513.28;5021549;28;20024;-47
2021/07/12 01:08:30;;;;;;;91.68;44.00;;;;;;;15.54;83.32;101506.25;5010024;28;20037;-53
2021/07/12 01:11:31;;;;;;;89.75;43.92;;;;;;;15.49;83.49;101506.19;5016994;28;20964;-50
2021/07/12 01:14:15;;;;;;;90.40;44.20;;;;;;;15.49;83.61;101506.19;4945839;28;20039;-47
2021/07/12 01:16:54;;;;;;;94.33;46.73;;;;;;;15.50;83.59;101509.69;5011521;28;20041;-47
2021/07/12 01:19:28;;;;;;;90.38;45.17;;;;;;;15.49;83.96;101511.44;5013975;28;20313;-50
2021/07/12 01:22:15;;;;;;;93.65;44.00;;;;;;;15.47;83.39;101500.06;5033049;28;20032;-48
2021/07/12 01:24:50;;;;;;;94.47;44.85;;;;;;;15.44;83.43;101508.81;5006474;28;20112;-48
2021/07/12 01:27:38;;;;;;;93.25;46.00;;;;;;;15.41;83.74;101503.56;5021607;28;20329;-47
2021/07/12 01:30:19;;;;;;;98.55;45.78;;;;;;;15.39;83.91;101505.28;5025670;28;20044;-49
2021/07/12 01:33:00;;;;;;;102.63;48.45;;;;;;;15.39;84.11;101505.28;5020155;28;20311;-49
2021/07/12 01:35:32;;;;;;;106.30;49.85;;;;;;;15.40;84.11;101507.06;5009538;28;20056;-50
2021/07/12 01:38:12;;;;;;;105.97;49.20;;;;;;;15.42;84.16;101504.44;5008650;28;20033;-47
2021/07/12 01:40:48;;;;;;;109.13;49.00;;;;;;;15.43;84.15;101501.78;5021099;28;20485;-51
2021/07/12 01:43:32;;;;;;;109.10;50.30;;;;;;;15.46;84.03;101503.56;5022341;28;20120;-52
2021/07/12 01:46:09;;;;;;;115.78;50.90;;;;;;;15.49;84.26;101500.94;5022357;28;20367;-51
2021/07/12 01:48:43;;;;;;;103.15;47.85;;;;;;;15.51;84.12;101496.56;5027905;28;20512;-53
2021/07/12 01:51:10;;;;;;;101.55;46.78;;;;;;;15.56;83.85;101499.25;4999503;28;20032;-49
2021/07/12 01:53:46;;;;;;;109.60;50.65;;;;;;;15.60;84.10;101491.41;5021918;28;20056;-51
2021/07/12 01:56:22;;;;;;;102.20;48.67;;;;;;;15.66;83.89;101490.53;5018788;28;20442;-51
2021/07/12 01:59:23;;;;;;;106.15;49.47;;;;;;;15.67;83.65;101485.28;5024164;28;20041;-51
2021/07/12 02:01:49;;;;;;;110.82;51.38;;;;;;;15.71;83.29;101484.41;5004878;28;20025;-52
2021/07/12 02:04:15;;;;;;;103.50;50.45;;;;;;;15.76;83.44;101494.91;5022374;28;20026;-52
2021/07/12 02:06:41;;;;;;;105.32;50.80;;;;;;;15.78;83.19;101499.31;5013880;28;20525;-51
2021/07/12 02:09:08;;;;;;;102.85;47.42;;;;;;;15.81;83.45;101494.06;5004912;28;20024;-49
2021/07/12 02:11:43;;;;;;;107.68;50.35;;;;;;;15.86;83.03;101491.41;5026791;28;20052;-47
2021/07/12 02:14:09;;;;;;;108.15;51.08;;;;;;;15.89;83.06;101485.31;5015696;28;20038;-47
2021/07/12 02:16:36;;;;;;;101.85;50.60;;;;;;;15.88;82.67;101487.06;5007609;28;20381;-51
2021/07/12 02:19:02;;;;;;;106.00;48.60;;;;;;;15.90;82.85;101485.31;5017239;28;20029;-49
2021/07/12 02:21:32;;;;;;;113.72;51.83;;;;;;;15.90;82.94;101472.16;5025862;28;20033;-49
2021/07/12 02:23:59;;;;;;;111.05;51.20;;;;;;;15.90;83.02;101477.44;5003803;28;20026;-52
2021/07/12 02:26:30;;;;;;;104.13;49.15;;;;;;;15.90;83.32;101468.66;5022401;28;20424;-49
2021/07/12 02:29:01;;;;;;;106.00;49.67;;;;;;;15.89;83.27;101472.16;5020795;28;20405;-51
2021/07/12 02:31:27;;;;;;;107.75;49.83;;;;;;;15.88;83.37;101466.03;5003196;28;20032;-47
2021/07/12 02:33:52;;;;;;;107.32;48.63;;;;;;;15.88;83.26;101465.13;5012055;28;20392;-48
2021/07/12 02:36:19;;;;;;;111.20;51.47;;;;;;;15.89;83.04;101464.28;5005321;28;20021;-49
2021/07/12 02:38:44;;;;;;;112.20;50.67;;;;;;;15.83;83.57;101465.13;5007455;28;20025;-47
2021/07/12 02:41:11;;;;;;;116.85;53.50;;;;;;;15.80;83.70;101450.22;5001291;28;20513;-47
2021/07/12 02:43:37;;;;;;;109.55;49.90;;;;;;;15.81;83.62;101451.09;5022721;28;20064;-49
2021/07/12 02:46:04;;;;;;;108.07;50.25;;;;;;;15.81;83.70;101448.47;5021420;28;20033;-46
2021/07/12 02:48:29;;;;;;;105.65;49.78;;;;;;;15.81;83.66;101440.59;5008118;28;20059;-47
2021/07/12 02:50:56;;;;;;;110.57;51.63;;;;;;;15.81;83.50;101440.59;5008008;28;20457;-47
2021/07/12 02:53:30;;;;;;;113.47;51.75;;;;;;;15.82;83.73;101434.47;5002944;28;20068;-49
2021/07/12 02:55:56;;;;;;;111.53;52.33;;;;;;;15.82;84.07;101431.84;5005374;28;20029;-48
2021/07/12 02:58:22;;;;;;;114.78;50.35;;;;;;;15.82;83.88;101435.34;5018836;28;20503;-49
2021/07/12 03:00:47;;;;;;;103.88;48.67;;;;;;;15.86;83.77;101438.00;5026307;28;20033;-51
2021/07/12 03:03:13;;;;;;;106.78;47.97;;;;;;;15.90;83.77;101423.97;5021389;28;20060;-48
2021/07/12 03:05:38;;;;;;;100.90;47.50;;;;;;;15.90;83.88;101419.56;5026486;28;20039;-48
2021/07/12 03:08:20;;;;;;;111.32;50.03;;;;;;;15.93;84.02;101419.56;5019132;28;20451;-48
2021/07/12 03:10:50;;;;;;;98.85;48.03;;;;;;;15.94;83.74;101428.34;5019286;28;20033;-48
2021/07/12 03:13:20;;;;;;;110.30;49.78;;;;;;;15.97;83.71;101423.09;5003919;28;20024;-47
2021/07/12 03:15:47;;;;;;;104.65;47.85;;;;;;;15.99;84.00;101423.94;5008013;28;20025;-49
2021/07/12 03:18:24;;;;;;;101.22;46.35;;;;;;;16.00;83.73;101423.06;5026143;28;20117;-48
2021/07/12 03:20:50;;;;;;;99.78;47.50;;;;;;;16.01;83.57;101415.19;5018887;28;20036;-50
2021/07/12 03:23:16;;;;;;;99.78;48.22;;;;;;;16.03;83.61;101416.06;5018286;28;20032;-49
2021/07/12 03:25:52;;;;;;;97.05;44.50;;;;;;;16.04;83.83;101409.06;5018313;28;20044;-48
2021/07/12 03:28:19;;;;;;;101.50;47.50;;;;;;;16.05;83.67;101419.56;5019993;28;20041;-51
2021/07/12 03:30:45;;;;;;;105.00;47.65;;;;;;;16.07;83.59;101409.03;5008258;28;20482;-48
2021/07/12 03:33:12;;;;;;;94.07;44.65;;;;;;;16.06;83.42;101396.78;5020395;28;20033;-47
2021/07/12 03:35:44;;;;;;;92.30;43.92;;;;;;;16.09;83.30;101404.66;5015279;28;20021;-47
2021/07/12 03:38:12;;;;;;;97.22;46.25;;;;;;;16.09;83.34;101415.19;5024761;28;20513;-49
2021/07/12 03:40:39;;;;;;;89.45;43.08;;;;;;;16.08;83.35;101413.44;5025290;28;20034;-50
2021/07/12 03:43:04;;;;;;;91.53;45.47;;;;;;;16.05;83.29;101401.16;5020559;28;20124;-49
2021/07/12 03:45:31;;;;;;;90.53;43.35;;;;;;;16.01;83.42;101402.03;5008593;28;20334;-51
2021/07/12 03:47:57;;;;;;;89.75;43.88;;;;;;;16.00;83.69;101404.66;5026127;28;20541;-52
2021/07/12 03:50:24;;;;;;;96.80;45.92;;;;;;;15.96;83.72;101411.69;5008233;28;20037;-47
2021/07/12 03:52:51;;;;;;;98.72;46.80;;;;;;;15.90;84.24;101406.44;5022230;28;20021;-51
2021/07/12 03:55:22;;;;;;;100.32;46.72;;;;;;;15.92;84.10;101406.44;5019233;28;20123;-47
2021/07/12 03:57:47;;;;;;;99.88;47.35;;;;;;;15.96;84.28;101408.19;5029980;28;20036;-48
2021/07/12 04:00:19;;;;;;;96.53;45.22;;;;;;;15.99;84.07;101405.53;5020703;28;20059;-50
2021/07/12 04:02:46;;;;;;;102.18;47.08;;;;;;;16.00;84.16;101402.03;5028199;28;20029;-49
2021/07/12 04:05:12;;;;;;;99.15;46.28;;;;;;;16.02;84.11;101410.81;5023849;28;20035;-48
2021/07/12 04:07:38;;;;;;;101.50;47.25;;;;;;;16.05;84.04;101405.53;5026077;28;20024;-53
2021/07/12 04:10:06;;;;;;;95.45;45.60;;;;;;;16.10;84.00;101411.69;5009873;28;20369;-48
2021/07/12 04:12:32;;;;;;;95.20;45.47;;;;;;;16.12;84.01;101413.41;5022634;28;20047;-48
2021/07/12 04:14:58;;;;;;;94.22;45.75;;;;;;;16.15;84.03;101396.78;5027116;28;20029;-53
2021/07/12 04:17:23;;;;;;;99.28;46.22;;;;;;;16.18;84.07;101405.53;5022116;28;20125;-49
2021/07/12 04:19:49;;;;;;;93.80;44.90;;;;;;;16.17;83.93;101395.88;5026006;28;20070;-48
2021/07/12 04:22:14;;;;;;;97.50;45.95;;;;;;;16.18;83.96;101395.00;5026984;28;20420;-48
2021/07/12 04:24:40;;;;;;;96.20;46.08;;;;;;;16.19;83.90;101391.50;5019620;28;20063;-49
2021/07/12 04:27:05;;;;;;;98.35;45.30;;;;;;;16.22;83.45;101388.00;5029859;28;20158;-50
2021/07/12 04:29:31;;;;;;;95.72;45.65;;;;;;;16.22;83.75;101383.59;5022037;28;20048;-51
2021/07/12 04:31:56;;;;;;;92.22;44.78;;;;;;;16.26;83.66;101389.75;5025761;28;20400;-49
2021/07/12 04:34:22;;;;;;;94.97;44.55;;;;;;;16.28;83.66;101392.38;5023428;28;20032;-46
2021/07/12 04:36:48;;;;;;;97.90;46.53;;;;;;;16.29;83.89;101389.72;5027884;28;20561;-48
2021/07/12 04:39:13;;;;;;;89.70;45.00;;;;;;;16.29;83.54;101378.31;5018927;28;20036;-47
2021/07/12 04:41:39;;;;;;;99.88;46.75;;;;;;;16.32;83.51;101371.31;5026242;28;20360;-50
2021/07/12 04:44:04;;;;;;;95.32;45.70;;;;;;;16.36;83.61;101374.78;5027039;28;20029;-49
2021/07/12 04:46:30;;;;;;;93.90;45.42;;;;;;;16.38;83.60;101366.03;5022412;28;20064;-49
2021/07/12 04:48:55;;;;;;;95.38;45.05;;;;;;;16.43;83.44;101363.38;5024602;28;20037;-52
2021/07/12 04:51:20;;;;;;;91.32;44.30;;;;;;;16.45;83.70;101366.91;5018967;28;20122;-48
2021/07/12 04:53:46;;;;;;;93.75;44.97;;;;;;;16.50;83.62;101363.38;5007330;28;20029;-47
2021/07/12 04:56:11;;;;;;;90.30;45.15;;;;;;;16.53;83.44;101359.81;5018949;28;20029;-48
2021/07/12 04:58:42;;;;;;;83.93;44.17;;;;;;;16.65;82.91;101356.34;5025825;28;20032;-52
2021/07/12 05:01:08;;;;;;;80.63;43.25;;;;;;;16.79;82.68;101359.78;5025209;28;20029;-50
2021/07/12 05:03:34;;;;;;;83.40;43.33;;;;;;;16.88;82.92;101351.84;5017295;28;20056;-50
2021/07/12 05:06:00;;;;;;;80.57;41.33;;;;;;;17.01;82.53;101348.28;5006155;28;20132;-50
2021/07/12 05:08:25;;;;;;;73.00;39.30;;;;;;;17.11;81.23;101346.44;5022680;28;20068;-49
2021/07/12 05:10:50;;;;;;;66.80;37.95;;;;;;;17.26;80.95;101346.38;5024145;28;20029;-52
2021/07/12 05:13:16;;;;;;;70.15;39.30;;;;;;;17.40;80.40;101348.00;5006443;28;20377;-49
2021/07/12 05:15:42;;;;;;;68.28;38.72;;;;;;;17.56;79.74;101348.78;5019171;28;20036;-51
2021/07/12 05:18:07;;;;;;;65.93;37.67;;;;;;;17.76;78.90;101349.50;5026647;28;20029;-52
2021/07/12 05:20:33;;;;;;;65.93;36.30;;;;;;;17.97;78.35;101342.28;5006732;28;20029;-50
2021/07/12 05:23:00;;;;;;;62.13;36.08;;;;;;;18.10;77.49;101336.91;5022395;28;20025;-49
2021/07/12 05:25:28;;;;;;;61.10;35.63;;;;;;;18.18;77.39;101336.78;5019573;28;20106;-50
2021/07/12 05:27:54;;;;;;;58.70;35.50;;;;;;;18.29;77.24;101328.78;5029792;28;20053;-49
2021/07/12 05:30:19;;;;;;;59.17;34.95;;;;;;;18.54;77.33;101348.72;5010565;28;20790;-50
2021/07/12 05:32:45;;;;;;;56.53;34.72;;;;;;;18.78;75.44;101340.53;5024294;28;20439;-51
2021/07/12 05:35:11;;;;;;;55.70;34.13;;;;;;;18.94;75.18;101338.56;5020524;28;20626;-51
2021/07/12 05:37:37;;;;;;;54.72;33.22;;;;;;;19.16;74.72;101340.00;5007166;28;20076;-47
2021/07/12 05:40:04;;;;;;;53.63;33.25;;;;;;;19.24;72.83;101332.84;5025146;28;20033;-51
2021/07/12 05:42:30;;;;;;;57.25;33.85;;;;;;;19.41;75.57;101345.78;5023171;28;20040;-51
2021/07/12 05:44:55;;;;;;;51.47;32.63;;;;;;;19.59;73.83;101334.97;5024114;28;20032;-48
2021/07/12 05:47:20;;;;;;;46.63;31.10;;;;;;;19.71;72.42;101329.47;5024209;28;20028;-51
2021/07/12 05:49:46;;;;;;;48.28;32.10;;;;;;;19.76;71.66;101327.59;5026025;28;20033;-47
2021/07/12 05:52:11;;;;;;;49.25;31.88;;;;;;;19.98;71.38;101325.47;5022999;28;20112;-51
2021/07/12 05:54:36;;;;;;;42.08;28.40;;;;;;;20.09;69.99;101326.16;5022092;28;20090;-48
2021/07/12 05:57:02;;;;;;;44.53;29.35;;;;;;;20.10;69.40;101316.44;5020112;28;20029;-48
2021/07/12 05:59:27;;;;;;;41.47;29.13;;;;;;;20.30;68.58;101324.00;5019691;28;20035;-50
2021/07/12 06:01:53;;;;;;;44.13;29.52;;;;;;;20.34;68.91;101317.75;5027505;28;20035;-50
2021/07/12 06:04:18;;;;;;;42.38;29.23;;;;;;;20.74;67.81;101328.44;5008943;28;20047;-50
2021/07/12 06:06:44;;;;;;;40.00;27.50;;;;;;;21.40;65.54;101311.03;5001994;28;20033;-50
2021/07/12 06:09:09;;;;;;;38.95;26.75;;;;;;;21.60;63.54;101307.84;5012322;28;20365;-50
2021/07/12 06:11:35;;;;;;;38.58;27.15;;;;;;;21.08;66.03;101315.31;5022802;28;20052;-47
2021/07/12 06:14:00;;;;;;;38.53;26.58;;;;;;;20.74;66.24;101313.38;5021988;28;20022;-51
2021/07/12 06:16:25;;;;;;;38.50;27.40;;;;;;;20.40;67.71;101309.69;5021372;28;20552;-47
2021/07/12 06:18:51;;;;;;;41.17;29.40;;;;;;;20.35;68.97;101308.94;5021225;28;20465;-49
2021/07/12 06:21:16;;;;;;;39.88;27.80;;;;;;;20.78;67.44;101316.84;5020188;28;20028;-50
2021/07/12 06:23:42;;;;;;;39.42;27.63;;;;;;;21.08;67.04;101316.16;5017951;28;20657;-51
2021/07/12 06:26:07;;;;;;;40.28;27.00;;;;;;;21.31;66.36;101321.84;5022085;28;20037;-50
2021/07/12 06:28:33;;;;;;;35.78;26.58;;;;;;;21.59;65.30;101311.41;5019170;28;20041;-52
2021/07/12 06:30:58;;;;;;;37.67;26.83;;;;;;;21.79;64.92;101308.25;5019305;28;20041;-50
2021/07/12 06:33:29;;;;;;;36.35;26.52;;;;;;;21.65;64.35;101315.72;5019932;28;20034;-49
2021/07/12 06:35:54;;;;;;;36.90;26.45;;;;;;;21.72;63.88;101314.63;5022071;28;20045;-51
2021/07/12 06:38:19;;;;;;;34.47;25.13;;;;;;;21.93;63.68;101324.72;5018011;28;20098;-49
2021/07/12 06:40:45;;;;;;;33.58;24.73;;;;;;;22.15;62.88;101330.34;5023178;28;20033;-50
2021/07/12 06:43:10;;;;;;;33.45;24.15;;;;;;;22.33;62.50;101318.34;5021336;28;20013;-53
2021/07/12 06:45:36;;;;;;;32.13;23.48;;;;;;;22.55;61.09;101316.84;5021904;28;20029;-48
2021/07/12 06:48:01;;;;;;;32.90;23.80;;;;;;;22.38;61.65;101327.06;5022798;28;20473;-49
2021/07/12 06:50:27;;;;;;;31.15;23.38;;;;;;;22.65;61.00;101323.63;5014796;28;20043;-48
2021/07/12 06:52:52;;;;;;;31.95;22.98;;;;;;;22.88;61.37;101323.81;5016679;28;20084;-47
2021/07/12 06:55:18;;;;;;;30.40;22.83;;;;;;;23.16;59.80;101317.66;5020931;28;20032;-49
2021/07/12 06:57:43;;;;;;;31.08;22.23;;;;;;;23.12;59.81;101322.19;5023172;28;20107;-50
2021/07/12 07:00:09;;;;;;;29.10;22.45;;;;;;;23.05;58.94;101316.19;5022808;28;20570;-53
2021/07/12 07:02:35;;;;;;;29.23;21.95;;;;;;;22.88;60.43;101315.84;5019231;28;20102;-51
2021/07/12 07:05:03;;;;;;;33.72;22.20;;;;;;;22.65;60.06;101313.84;5017305;28;20033;-47
2021/07/12 07:07:28;;;;;;;32.50;23.13;;;;;;;22.21;60.28;101309.81;5018496;28;20273;-48
2021/07/12 07:09:53;;;;;;;29.85;22.55;;;;;;;21.97;61.92;101313.13;5008425;28;20564;-50
2021/07/12 07:12:19;;;;;;;32.85;22.92;;;;;;;21.54;64.07;101304.47;5018039;28;20600;-49
2021/07/12 07:14:44;;;;;;;29.98;23.10;;;;;;;21.56;63.55;101303.56;5022527;28;20029;-49
2021/07/12 07:17:10;;;;;;;31.90;23.27;;;;;;;21.37;64.79;101294.28;5024858;28;20421;-48
2021/07/12 07:19:35;;;;;;;29.90;22.20;;;;;;;21.40;64.05;101296.88;5022904;28;21089;-48
2021/07/12 07:22:00;;;;;;;31.75;21.73;;;;;;;21.55;63.66;101287.66;5023743;28;20385;-51
2021/07/12 07:24:26;;;;;;;31.17;21.27;;;;;;;21.68;63.81;101289.97;5026569;28;20448;-49
2021/07/12 07:26:51;;;;;;;32.40;22.25;;;;;;;21.83;63.53;101294.88;5013518;28;20041;-51
2021/07/12 07:29:16;;;;;;;30.38;21.85;;;;;;;21.95;63.59;101291.06;5012550;28;20116;-48
2021/07/12 07:31:43;;;;;;;28.55;22.05;;;;;;;22.11;62.84;101291.50;5027087;28;20034;-48
2021/07/12 07:34:08;;;;;;;27.70;21.30;;;;;;;22.51;61.93;101292.13;5020629;28;20939;-50
2021/07/12 07:36:34;;;;;;;29.27;21.38;;;;;;;22.77;61.15;101287.84;5024007;28;20033;-52
2021/07/12 07:38:59;;;;;;;28.10;20.30;;;;;;;23.10;62.16;101288.59;5006646;28;20033;-50
2021/07/12 07:41:25;;;;;;;27.80;21.25;;;;;;;23.25;59.20;101286.31;5024989;28;20623;-47
2021/07/12 07:43:50;;;;;;;29.88;20.95;;;;;;;23.67;58.22;101277.84;5020014;28;20037;-54
2021/07/12 07:46:16;;;;;;;27.65;20.08;;;;;;;23.95;58.59;101275.09;5024162;28;20627;-49
2021/07/12 07:48:41;;;;;;;28.48;19.85;;;;;;;24.18;58.23;101277.81;5026153;28;20021;-50
2021/07/12 07:51:07;;;;;;;25.77;19.52;;;;;;;24.97;54.13;101280.16;5023853;28;20048;-51
2021/07/12 07:53:32;;;;;;;24.77;19.52;;;;;;;25.33;53.04;101286.69;5021995;28;20183;-50
2021/07/12 07:55:58;;;;;;;24.60;19.25;;;;;;;25.78;52.84;101277.72;5025521;28;20033;-52
2021/07/12 07:58:23;;;;;;;23.25;18.98;;;;;;;25.90;53.62;101278.97;5027015;28;20487;-52
2021/07/12 08:00:49;;;;;;;26.35;18.38;;;;;;;25.96;51.44;101271.56;5024620;28;20343;-51
2021/07/12 08:03:14;;;;;;;20.10;15.93;;;;;;;26.69;50.30;101262.91;5024418;28;20077;-52
2021/07/12 08:05:39;;;;;;;22.80;18.52;;;;;;;26.16;52.28;101260.00;5030462;28;20119;-50
2021/07/12 08:08:05;;;;;;;21.67;17.67;;;;;;;26.16;49.23;101254.66;5023327;28;20116;-51
2021/07/12 08:10:30;;;;;;;22.10;17.98;;;;;;;25.81;51.26;101249.06;5024131;28;20044;-49
2021/07/12 08:12:56;;;;;;;19.95;16.80;;;;;;;26.04;50.18;101257.88;5012270;28;20684;-48
2021/07/12 08:15:22;;;;;;;24.20;18.52;;;;;;;26.03;50.57;101262.34;5008228;28;20032;-50
2021/07/12 08:17:49;;;;;;;22.95;17.92;;;;;;;26.39;50.37;101253.63;5021603;28;20032;-48
2021/07/12 08:20:16;;;;;;;18.55;15.63;;;;;;;27.31;49.08;101253.66;5021919;28;20029;-49
2021/07/12 08:22:42;;;;;;;20.58;16.70;;;;;;;27.32;48.75;101242.88;5024499;28;20755;-50
2021/07/12 08:25:08;;;;;;;17.98;14.70;;;;;;;27.07;47.53;101252.19;5016726;28;20082;-50
2021/07/12 08:27:35;;;;;;;20.00;16.30;;;;;;;25.83;50.99;101247.19;5022834;28;20056;-48
2021/07/12 08:30:01;;;;;;;19.58;15.18;;;;;;;25.60;49.97;101243.78;5012012;28;20310;-52
2021/07/12 08:32:26;;;;;;;21.70;17.30;;;;;;;24.86;52.99;101243.22;5002678;28;20383;-50
2021/07/12 08:34:52;;;;;;;19.20;15.48;;;;;;;24.84;53.12;101246.88;5025090;28;20028;-49
2021/07/12 08:37:18;;;;;;;21.40;16.30;;;;;;;24.97;53.36;101241.03;5021365;28;20024;-52
2021/07/12 08:39:43;;;;;;;20.95;17.02;;;;;;;24.87;53.67;101252.09;5025112;28;20098;-49
2021/07/12 08:42:13;;;;;;;21.80;16.75;;;;;;;24.85;53.04;101244.16;5018537;28;20460;-51
2021/07/12 08:44:38;;;;;;;24.02;16.88;;;;;;;25.13;54.34;101238.59;5023789;28;20110;-53
2021/07/12 08:47:06;;;;;;;26.42;18.00;;;;;;;24.91;52.42;101243.06;5011366;28;20540;-53
2021/07/12 08:49:31;;;;;;;20.90;17.73;;;;;;;24.95;52.33;101242.00;5024065;28;20072;-53
2021/07/12 08:52:00;;;;;;;21.88;18.25;;;;;;;24.85;53.97;101240.63;5026168;28;20467;-49
2021/07/12 08:54:25;;;;;;;22.13;17.25;;;;;;;25.09;54.97;101244.13;5024924;28;20024;-48
2021/07/12 08:56:51;;;;;;;21.50;14.77;;;;;;;25.19;53.46;101237.50;5020929;28;20408;-52
2021/07/12 08:59:36;;;;;;;19.15;13.35;;;;;;;25.52;52.55;101236.06;5019614;28;20032;-51
2021/07/12 09:02:11;;;;;;;15.30;10.63;;;;;;;25.79;51.16;101228.72;5026926;28;20356;-51
2021/07/12 09:04:42;;;;;;;16.17;12.23;;;;;;;25.99;50.75;101227.81;5022937;28;20029;-51
2021/07/12 09:07:13;;;;;;;13.82;12.00;;;;;;;26.29;49.25;101226.44;5025552;28;20040;-52
2021/07/12 09:09:39;;;;;;;15.05;11.27;;;;;;;26.34;51.13;101223.56;5028883;28;20029;-53
2021/07/12 09:12:17;;;;;;;15.25;10.88;;;;;;;26.75;52.65;101235.00;5024161;28;20067;-53
2021/07/12 09:15:05;;;;;;;15.90;11.77;;;;;;;26.66;50.06;101225.59;5022342;28;20040;-50
2021/07/12 09:17:32;;;;;;;16.30;12.85;;;;;;;26.46;48.85;101225.69;5026216;28;21130;-49
2021/07/12 09:19:58;;;;;;;13.50;11.43;;;;;;;26.43;49.88;101218.66;5011266;28;20071;-52
2021/07/12 09:22:30;;;;;;;15.13;12.43;;;;;;;26.31;52.22;101221.91;5022301;28;20029;-49
2021/07/12 09:24:56;;;;;;;19.88;11.88;;;;;;;26.21;49.21;101216.09;5023628;28;20086;-51
2021/07/12 09:27:24;;;;;;;13.25;10.07;;;;;;;26.42;48.71;101210.69;5020785;28;20053;-53
2021/07/12 09:29:57;;;;;;;13.25;9.88;;;;;;;26.32;49.94;101220.97;5008373;28;20022;-49
2021/07/12 09:32:23;;;;;;;;;;;;;;;26.37;51.93;101216.28;5019127;28;20040;-51
2021/07/12 09:34:50;;;;;;;11.68;8.88;;;;;;;26.44;47.47;101206.16;5023291;28;19967;-50
2021/07/12 09:37:17;;;;;;;11.65;8.88;;;;;;;26.47;47.43;101214.06;5015248;28;20346;-50
2021/07/12 09:39:47;;;;;;;12.95;8.20;;;;;;;26.72;48.13;101216.41;5015347;28;20627;-52
2021/07/12 09:42:16;;;;;;;10.30;7.40;;;;;;;26.44;51.79;101212.38;5010854;28;20029;-49
2021/07/12 09:44:44;;;;;;;7.63;6.20;;;;;;;26.15;47.75;101205.69;5014130;28;20036;-49
2021/07/12 09:47:12;;;;;;;10.70;6.25;;;;;;;26.23;46.43;101203.53;5011237;28;20025;-51
2021/07/12 09:49:38;;;;;;;8.77;6.25;;;;;;;26.29;48.29;101205.06;5016359;28;20025;-50
2021/07/12 09:52:07;;;;;;;6.85;5.70;;;;;;;25.91;48.33;101203.25;5023600;28;20028;-51
2021/07/12 09:54:35;;;;;;;6.45;5.20;;;;;;;25.84;48.18;101208.00;5022189;28;20025;-52
2021/07/12 09:57:15;;;;;;;9.25;6.40;;;;;;;26.10;48.71;101202.34;5018897;28;20036;-50
2021/07/12 09:59:52;;;;;;;6.80;5.68;;;;;;;26.40;46.62;101192.09;5019854;28;20048;-52
2021/07/12 10:02:23;;;;;;;7.63;5.00;;;;;;;26.59;46.22;101184.88;5021686;28;20702;-47
2021/07/12 10:04:53;;;;;;;8.02;6.13;;;;;;;26.66;47.54;101193.50;5024500;28;20018;-50
2021/07/12 10:07:18;;;;;;;8.57;5.65;;;;;;;26.32;46.32;101191.56;5008491;28;20122;-49
2021/07/12 10:09:43;;;;;;;6.68;5.95;;;;;;;25.99;47.87;101185.91;5025314;28;20325;-50
2021/07/12 10:12:09;;;;;;;11.75;5.65;;;;;;;26.03;48.65;101184.00;5006944;28;20105;-51
2021/07/12 10:14:34;;;;;;;6.75;5.75;;;;;;;25.81;48.84;101187.63;5020579;28;20033;-49
2021/07/12 10:17:02;;;;;;;7.28;5.60;;;;;;;25.51;48.68;101175.59;5022062;28;20528;-51
2021/07/12 10:19:28;;;;;;;10.20;7.07;;;;;;;25.23;52.24;101183.06;5005085;28;20496;-49
2021/07/12 10:21:53;;;;;;;9.02;7.55;;;;;;;25.31;48.54;101173.78;5024695;28;20128;-50
2021/07/12 10:24:26;;;;;;;9.38;7.93;;;;;;;25.38;48.51;101163.72;5012208;28;20136;-53
2021/07/12 10:26:58;;;;;;;9.88;7.18;;;;;;;25.14;49.49;101172.75;5023111;28;20041;-49
2021/07/12 10:29:30;;;;;;;9.32;7.85;;;;;;;25.04;49.46;101167.84;5016681;28;20808;-51
2021/07/12 10:32:10;;;;;;;8.95;6.10;;;;;;;25.34;51.02;101171.00;5025079;28;20040;-50
2021/07/12 10:34:43;;;;;;;7.65;6.07;;;;;;;25.30;51.88;101172.06;5015898;28;20775;-52
2021/07/12 10:37:33;;;;;;;8.48;5.43;;;;;;;25.34;52.77;101176.34;5021573;28;20033;-48
2021/07/12 10:40:06;;;;;;;6.32;4.00;;;;;;;25.56;48.43;101175.38;5021861;28;20037;-48
2021/07/12 10:42:43;;;;;;;5.85;3.80;;;;;;;25.34;50.60;101165.66;5021133;28;20481;-53
2021/07/12 10:45:13;;;;;;;4.97;4.15;;;;;;;25.67;49.48;101168.69;5020087;28;20382;-53
2021/07/12 10:48:12;;;;;;;4.40;3.80;;;;;;;25.73;48.23;101176.44;5024344;28;20197;-50
2021/07/12 10:50:44;;;;;;;7.88;3.50;;;;;;;25.78;46.05;101182.44;5016233;28;20073;-48
2021/07/12 10:53:16;;;;;;;4.55;3.58;;;;;;;25.65;46.93;101180.38;4988398;28;20044;-48
2021/07/12 10:56:05;;;;;;;5.90;3.72;;;;;;;25.69;45.49;101177.50;5017510;28;20032;-52
2021/07/12 10:58:30;;;;;;;6.75;4.20;;;;;;;26.00;48.25;101178.78;5022431;28;20065;-49
2021/07/12 11:00:58;;;;;;;8.75;5.32;;;;;;;26.18;46.12;101172.59;5020226;28;20182;-52
2021/07/12 11:03:42;;;;;;;7.18;5.47;;;;;;;26.19;47.82;101179.66;5013277;28;20029;-50
2021/07/12 11:06:07;;;;;;;6.18;5.20;;;;;;;26.44;47.78;101172.28;5024394;28;20040;-51
2021/07/12 11:08:45;;;;;;;5.28;4.65;;;;;;;26.27;46.55;101168.66;5019069;28;20026;-50
2021/07/12 11:11:21;;;;;;;7.07;4.10;;;;;;;26.46;45.33;101167.72;5023360;28;20566;-52
2021/07/12 11:14:13;;;;;;;4.40;3.22;;;;;;;26.39;45.32;101163.59;5021372;28;20433;-50